Time;durP1;ratioP1;P1;durP2;ratioP2;P2;SDS_P1;SDS_P2;PMS_P1;PMS_P2;Temp;Humidity;BMP_temperature;BMP_pressure;BME280_temperature;BME280_humidity;BME280_pressure;Samples;Min_cycle;Max_cycle;Signal;HPM_P1;HPM_P2
2022/05/26 00:01:07;;;;;;;4.33;1.30;;;16.90;99.90;;;;;;5025714;28;20480;-82
2022/05/26 00:03:37;;;;;;;3.80;1.30;;;16.90;99.90;;;;;;5026550;28;20457;-79
2022/05/26 00:06:06;;;;;;;2.70;1.50;;;16.90;99.90;;;;;;5025068;28;20453;-79
2022/05/26 00:08:33;;;;;;;2.77;1.30;;;16.80;99.90;;;;;;5023875;28;20453;-82
2022/05/26 00:11:00;;;;;;;3.77;1.50;;;16.80;99.90;;;;;;5026619;28;20470;-82
2022/05/26 00:13:27;;;;;;;2.93;1.07;;;16.80;99.90;;;;;;5028173;28;20516;-82
2022/05/26 00:15:54;;;;;;;2.50;1.50;;;16.80;99.90;;;;;;5026609;28;20452;-82
2022/05/26 00:18:21;;;;;;;3.17;1.50;;;16.80;99.90;;;;;;5026740;28;20480;-81
2022/05/26 00:20:50;;;;;;;2.97;1.67;;;16.90;99.90;;;;;;5026492;28;20462;-82
2022/05/26 00:23:16;;;;;;;4.57;1.50;;;16.90;99.90;;;;;;5028041;28;20544;-81
2022/05/26 00:25:43;;;;;;;3.60;1.30;;;16.90;99.90;;;;;;5027361;28;20480;-80
2022/05/26 00:28:10;;;;;;;4.07;1.57;;;16.80;99.90;;;;;;5026544;28;20463;-82
2022/05/26 00:30:38;;;;;;;4.43;1.73;;;16.80;99.90;;;;;;5027017;28;20485;-82
2022/05/26 00:33:06;;;;;;;6.00;1.47;;;16.80;99.90;;;;;;5029162;28;20452;-81
2022/05/26 00:35:34;;;;;;;2.30;1.30;;;16.70;99.90;;;;;;5029659;28;20484;-79
2022/05/26 00:38:03;;;;;;;3.53;1.83;;;16.80;99.90;;;;;;5029429;28;20460;-80
2022/05/26 00:40:30;;;;;;;4.03;1.27;;;16.80;99.90;;;;;;5028428;28;20469;-82
2022/05/26 00:42:58;;;;;;;3.23;1.50;;;16.80;99.90;;;;;;5029049;28;20441;-81
2022/05/26 00:45:24;;;;;;;3.27;1.40;;;16.80;99.90;;;;;;5028229;28;20468;-80
2022/05/26 00:47:52;;;;;;;4.33;1.40;;;16.70;99.90;;;;;;5028554;28;20469;-80
2022/05/26 00:50:23;;;;;;;5.00;1.57;;;16.80;99.90;;;;;;5027260;28;20564;-79
2022/05/26 00:52:54;;;;;;;4.50;1.40;;;16.80;99.90;;;;;;5029314;28;20471;-80
2022/05/26 00:55:26;;;;;;;3.93;1.90;;;16.70;99.90;;;;;;5028846;28;20525;-80
2022/05/26 00:57:58;;;;;;;3.47;1.40;;;16.70;99.90;;;;;;5022087;28;20453;-82
2022/05/26 01:00:29;;;;;;;4.00;1.53;;;16.70;99.90;;;;;;5015701;28;20537;-80
2022/05/26 01:03:04;;;;;;;3.50;1.30;;;16.70;99.90;;;;;;5016967;28;20450;-79
2022/05/26 01:05:34;;;;;;;3.80;1.30;;;16.70;99.90;;;;;;5015471;28;20829;-80
2022/05/26 01:08:01;;;;;;;4.43;1.37;;;16.70;99.90;;;;;;5017553;28;20461;-81
2022/05/26 01:10:30;;;;;;;4.87;1.60;;;16.70;99.90;;;;;;5016606;28;20565;-78
2022/05/26 01:12:57;;;;;;;5.77;1.40;;;16.80;99.90;;;;;;5019462;28;20477;-79
2022/05/26 01:15:24;;;;;;;2.83;1.30;;;16.80;99.90;;;;;;5020360;28;20454;-79
2022/05/26 01:17:59;;;;;;;3.60;1.40;;;16.70;99.90;;;;;;5019732;28;20945;-80
2022/05/26 01:20:36;;;;;;;2.90;1.60;;;16.80;99.90;;;;;;5018896;28;20484;-81
2022/05/26 01:23:36;;;;;;;2.77;1.63;;;16.70;99.90;;;;;;5020467;28;20471;-79
2022/05/26 01:26:42;;;;;;;2.80;1.40;;;16.60;99.90;;;;;;5021499;28;20457;-80
2022/05/26 01:29:42;;;;;;;3.57;1.70;;;16.70;99.90;;;;;;5021848;28;21103;-82
2022/05/26 01:32:16;;;;;;;5.60;2.27;;;16.70;99.90;;;;;;5021573;28;20468;-80
2022/05/26 01:34:53;;;;;;;7.43;2.03;;;16.70;99.90;;;;;;5022067;28;20456;-81
2022/05/26 01:37:30;;;;;;;6.77;1.60;;;16.70;99.90;;;;;;5023007;28;20958;-80
2022/05/26 01:40:02;;;;;;;4.07;2.00;;;16.70;99.90;;;;;;5024893;28;20461;-81
2022/05/26 01:42:36;;;;;;;5.53;2.00;;;16.60;99.90;;;;;;5031141;28;20542;-81
2022/05/26 01:45:10;;;;;;;5.73;1.67;;;16.70;99.90;;;;;;5030607;28;20485;-80
2022/05/26 01:47:44;;;;;;;4.53;1.80;;;16.70;99.90;;;;;;5030506;28;20436;-80
2022/05/26 01:50:22;;;;;;;4.10;2.00;;;16.60;99.90;;;;;;5029063;28;20500;-81
2022/05/26 01:53:09;;;;;;;4.87;1.90;;;16.60;99.90;;;;;;5028916;28;20464;-79
2022/05/26 01:55:43;;;;;;;5.07;2.37;;;16.60;99.90;;;;;;5028552;28;20465;-82
2022/05/26 01:58:14;;;;;;;3.70;2.40;;;16.70;99.90;;;;;;5029106;28;20456;-80
2022/05/26 02:00:41;;;;;;;5.37;2.63;;;16.70;99.90;;;;;;5026907;28;20478;-80
2022/05/26 02:03:12;;;;;;;3.87;2.83;;;16.60;99.90;;;;;;5027431;28;20458;-81
2022/05/26 02:05:42;;;;;;;5.30;2.40;;;16.50;99.90;;;;;;5027517;28;20495;-81
2022/05/26 02:08:15;;;;;;;5.13;2.33;;;16.50;99.90;;;;;;5027782;28;20453;-79
2022/05/26 02:10:47;;;;;;;4.93;2.30;;;16.40;99.90;;;;;;5026475;28;20519;-81
2022/05/26 02:13:18;;;;;;;4.30;2.20;;;16.50;99.90;;;;;;5026274;28;20534;-81
2022/05/26 02:15:48;;;;;;;3.23;1.70;;;16.50;99.90;;;;;;5027524;28;20465;-80
2022/05/26 02:18:22;;;;;;;5.57;1.80;;;16.50;99.90;;;;;;5026494;28;20456;-78
2022/05/26 02:20:53;;;;;;;4.27;1.70;;;16.50;99.90;;;;;;5024665;28;20486;-80
2022/05/26 02:23:26;;;;;;;5.20;1.53;;;16.50;99.90;;;;;;5027545;28;20484;-79
2022/05/26 02:25:54;;;;;;;5.03;1.60;;;16.50;99.90;;;;;;5027626;28;20534;-80
2022/05/26 02:28:21;;;;;;;2.47;1.47;;;16.50;99.90;;;;;;5027657;28;20464;-81
2022/05/26 02:30:48;;;;;;;4.90;1.60;;;16.50;99.90;;;;;;5028281;28;20488;-79
2022/05/26 02:33:18;;;;;;;3.07;1.33;;;16.60;99.90;;;;;;5028538;28;20477;-81
2022/05/26 02:35:48;;;;;;;5.37;1.47;;;16.60;99.90;;;;;;5027876;28;20435;-80
2022/05/26 02:38:17;;;;;;;4.30;1.53;;;16.50;99.90;;;;;;5028446;28;20456;-80
2022/05/26 02:40:45;;;;;;;4.40;1.30;;;16.50;99.90;;;;;;5043035;22;20507;-78
2022/05/26 02:43:16;;;;;;;4.33;1.53;;;16.50;99.90;;;;;;5016712;28;20445;-78
2022/05/26 02:45:55;;;;;;;3.80;1.83;;;16.50;99.90;;;;;;4998189;28;20454;-78
2022/05/26 02:48:45;;;;;;;5.87;1.80;;;16.50;99.90;;;;;;5004887;28;20994;-78
2022/05/26 02:51:19;;;;;;;5.93;1.50;;;16.40;99.90;;;;;;4997162;28;21002;-78
2022/05/26 02:53:54;;;;;;;5.00;1.60;;;16.40;99.90;;;;;;4997517;28;20456;-78
2022/05/26 02:56:31;;;;;;;5.10;1.70;;;16.40;99.90;;;;;;4997317;28;20454;-77
2022/05/26 02:59:05;;;;;;;5.17;2.40;;;16.40;99.90;;;;;;4996988;28;20893;-78
2022/05/26 03:01:37;;;;;;;2.87;1.70;;;16.40;99.90;;;;;;4996330;28;20446;-79
2022/05/26 03:04:09;;;;;;;3.20;1.80;;;16.40;99.90;;;;;;4997983;28;20457;-78
2022/05/26 03:06:41;;;;;;;2.80;1.37;;;16.40;99.90;;;;;;4999257;28;20458;-78
2022/05/26 03:09:10;;;;;;;4.40;2.60;;;16.40;99.90;;;;;;4998774;28;20968;-80
2022/05/26 03:11:44;;;;;;;3.73;1.80;;;16.50;99.90;;;;;;4996924;28;20486;-78
2022/05/26 03:14:11;;;;;;;4.43;1.93;;;16.40;99.90;;;;;;4998152;28;20466;-78
2022/05/26 03:16:38;;;;;;;3.73;1.87;;;16.40;99.90;;;;;;4997852;28;20448;-79
2022/05/26 03:19:06;;;;;;;3.60;1.90;;;16.40;99.90;;;;;;4996280;28;20458;-81
2022/05/26 03:21:33;;;;;;;4.87;2.20;;;16.30;99.90;;;;;;4996459;28;20460;-78
2022/05/26 03:24:00;;;;;;;7.70;2.40;;;16.30;99.90;;;;;;4997403;28;20449;-78
2022/05/26 03:26:27;;;;;;;4.93;2.30;;;16.30;99.90;;;;;;4996702;28;20479;-78
2022/05/26 03:28:54;;;;;;;4.57;2.60;;;16.30;99.90;;;;;;4996889;28;20450;-78
2022/05/26 03:31:21;;;;;;;4.10;2.17;;;16.40;99.90;;;;;;4995012;28;20570;-78
2022/05/26 03:42:02;;;;;;;5.23;2.60;;;16.30;99.90;;;;;;4980881;28;20486;-78
2022/05/26 03:44:31;;;;;;;6.57;2.60;;;16.30;99.90;;;;;;4997822;28;20473;-77
2022/05/26 03:46:59;;;;;;;4.10;1.70;;;16.30;99.90;;;;;;4997691;28;20521;-78
2022/05/26 03:49:26;;;;;;;3.37;1.67;;;16.30;99.90;;;;;;4997151;28;20473;-79
2022/05/26 03:51:57;;;;;;;3.77;2.10;;;16.30;99.90;;;;;;4996424;28;22073;-78
2022/05/26 03:54:24;;;;;;;3.40;2.30;;;16.30;99.90;;;;;;4997361;28;20445;-79
2022/05/26 03:56:51;;;;;;;3.10;1.90;;;16.30;99.90;;;;;;4997702;28;20453;-79
2022/05/26 03:59:18;;;;;;;3.97;2.13;;;16.40;99.90;;;;;;4997432;28;21049;-78
2022/05/26 04:01:45;;;;;;;3.83;1.87;;;16.40;99.90;;;;;;4996292;28;20957;-79
2022/05/26 04:04:12;;;;;;;4.33;2.20;;;16.30;99.90;;;;;;4999696;28;20469;-78
2022/05/26 04:06:38;;;;;;;4.77;2.40;;;16.30;99.90;;;;;;5001457;28;20453;-79
2022/05/26 04:09:06;;;;;;;5.17;2.10;;;16.30;99.90;;;;;;5002036;28;20516;-79
2022/05/26 04:11:33;;;;;;;6.10;2.53;;;16.30;99.90;;;;;;5001778;28;20520;-79
2022/05/26 04:14:00;;;;;;;4.07;2.37;;;16.10;99.90;;;;;;5003112;28;20453;-79
2022/05/26 04:16:27;;;;;;;3.90;2.27;;;16.00;99.90;;;;;;5003117;28;20917;-79
2022/05/26 04:18:54;;;;;;;4.47;2.47;;;15.90;99.90;;;;;;5002922;28;20455;-79
2022/05/26 04:21:21;;;;;;;5.57;2.30;;;15.90;99.90;;;;;;5001240;28;20454;-79
2022/05/26 04:23:48;;;;;;;6.10;2.67;;;15.80;99.90;;;;;;5002370;28;20465;-79
2022/05/26 04:26:16;;;;;;;3.87;2.90;;;15.70;99.90;;;;;;5003091;28;20445;-80
2022/05/26 04:28:43;;;;;;;6.97;2.93;;;15.70;99.90;;;;;;5002989;28;20465;-79
2022/05/26 04:31:09;;;;;;;4.20;2.30;;;15.70;99.90;;;;;;5001174;28;20490;-78
2022/05/26 04:33:36;;;;;;;7.13;3.57;;;15.70;99.90;;;;;;5002627;28;20457;-78
2022/05/26 04:36:04;;;;;;;3.80;3.27;;;15.80;99.90;;;;;;5001158;28;20467;-79
2022/05/26 04:38:31;;;;;;;4.77;4.30;;;15.90;99.90;;;;;;5000331;28;20517;-79
2022/05/26 04:40:59;;;;;;;9.13;3.93;;;15.80;99.90;;;;;;5000274;28;20788;-78
2022/05/26 04:43:27;;;;;;;4.93;3.20;;;15.80;99.90;;;;;;5000163;28;20463;-79
2022/05/26 04:45:54;;;;;;;9.20;5.00;;;15.80;99.90;;;;;;5001285;28;20462;-78
2022/05/26 04:48:22;;;;;;;6.30;3.40;;;15.80;99.90;;;;;;5001074;28;20836;-77
2022/05/26 04:50:49;;;;;;;4.10;3.10;;;15.80;99.90;;;;;;4999479;28;20490;-78
2022/05/26 04:53:17;;;;;;;4.73;2.73;;;15.90;99.90;;;;;;5001078;28;20451;-79
2022/05/26 04:55:43;;;;;;;4.00;3.03;;;15.90;99.90;;;;;;5001365;28;20461;-78
2022/05/26 04:58:10;;;;;;;9.23;3.50;;;15.90;99.90;;;;;;5000389;28;20872;-78
2022/05/26 05:00:40;;;;;;;5.27;3.57;;;15.80;99.90;;;;;;4999419;28;20478;-78
2022/05/26 05:03:06;;;;;;;5.40;3.87;;;15.90;99.90;;;;;;5001117;28;20501;-78
2022/05/26 05:05:33;;;;;;;8.60;5.03;;;15.90;99.90;;;;;;4999839;28;20469;-79
2022/05/26 05:08:00;;;;;;;9.27;5.30;;;16.00;99.90;;;;;;5000683;28;20455;-79
2022/05/26 05:10:27;;;;;;;7.80;5.97;;;15.90;99.90;;;;;;4999680;28;20490;-78
2022/05/26 05:12:58;;;;;;;8.73;5.83;;;16.00;99.90;;;;;;5001129;28;20447;-80
2022/05/26 05:15:31;;;;;;;8.90;6.67;;;16.10;99.90;;;;;;4999443;28;20515;-79
2022/05/26 05:17:59;;;;;;;10.63;7.20;;;16.20;99.90;;;;;;5000196;28;20865;-79
2022/05/26 05:20:26;;;;;;;9.90;6.80;;;16.20;99.90;;;;;;4995977;28;20475;-78
2022/05/26 05:23:01;;;;;;;7.93;6.80;;;16.20;99.90;;;;;;4998360;28;20450;-78
2022/05/26 05:25:32;;;;;;;11.33;7.40;;;16.20;99.90;;;;;;4999169;28;20458;-78
2022/05/26 05:28:03;;;;;;;12.23;8.17;;;16.10;99.90;;;;;;4998889;28;20458;-79
2022/05/26 05:30:33;;;;;;;12.40;9.23;;;16.10;99.90;;;;;;4998296;28;20492;-78
2022/05/26 05:33:08;;;;;;;12.33;9.27;;;16.20;99.90;;;;;;4998876;28;20454;-77
2022/05/26 05:35:40;;;;;;;9.37;8.37;;;16.20;99.90;;;;;;4998842;28;20458;-77
2022/05/26 05:38:07;;;;;;;12.43;8.73;;;16.20;99.90;;;;;;4997443;28;20456;-77
2022/05/26 05:40:36;;;;;;;13.20;9.60;;;16.30;99.90;;;;;;4997945;28;20573;-78
2022/05/26 05:43:02;;;;;;;14.30;9.43;;;16.30;99.90;;;;;;4997784;28;20464;-78
2022/05/26 05:45:29;;;;;;;10.70;9.20;;;16.30;99.90;;;;;;4999128;28;20533;-78
2022/05/26 05:47:56;;;;;;;12.03;9.03;;;16.30;99.90;;;;;;4998794;28;20479;-78
2022/05/26 05:50:25;;;;;;;15.97;9.97;;;16.40;99.90;;;;;;4997523;28;20497;-78
2022/05/26 05:52:51;;;;;;;12.37;9.10;;;16.40;99.90;;;;;;4999568;28;20553;-79
2022/05/26 05:55:18;;;;;;;12.90;9.40;;;16.50;99.90;;;;;;4998548;28;20460;-79
2022/05/26 05:57:45;;;;;;;11.97;8.93;;;16.50;99.90;;;;;;4998373;28;20536;-79
2022/05/26 06:00:13;;;;;;;12.33;8.87;;;16.50;99.90;;;;;;4998925;28;20554;-78
2022/05/26 06:02:40;;;;;;;12.70;8.67;;;16.60;99.90;;;;;;4998910;28;20836;-78
2022/05/26 06:05:07;;;;;;;11.97;8.90;;;16.60;99.90;;;;;;4998290;28;20450;-79
2022/05/26 06:07:38;;;;;;;9.97;8.17;;;16.60;99.90;;;;;;4998619;28;20457;-78
2022/05/26 06:10:05;;;;;;;11.80;8.00;;;16.70;99.90;;;;;;4997525;28;20485;-79
2022/05/26 06:12:32;;;;;;;11.07;8.47;;;16.70;99.90;;;;;;4997678;28;20491;-78
2022/05/26 06:14:59;;;;;;;10.80;8.50;;;16.70;99.90;;;;;;5000631;28;20545;-78
2022/05/26 06:17:26;;;;;;;11.83;8.70;;;16.80;99.90;;;;;;5001586;28;20509;-78
2022/05/26 06:19:53;;;;;;;16.10;10.90;;;16.90;99.90;;;;;;4998942;28;20485;-79
2022/05/26 06:22:22;;;;;;;14.70;9.23;;;16.90;99.90;;;;;;5000846;28;20481;-79
2022/05/26 06:24:51;;;;;;;11.77;8.90;;;16.90;99.90;;;;;;5004190;28;20453;-79
2022/05/26 06:30:08;;;;;;;10.63;8.13;;;17.00;99.90;;;;;;5002435;28;20467;-78
2022/05/26 06:38:11;;;;;;;14.47;9.90;;;17.10;99.90;;;;;;5000167;28;20514;-79
2022/05/26 06:40:39;;;;;;;22.00;9.80;;;17.20;99.90;;;;;;5001024;28;20532;-79
2022/05/26 06:43:06;;;;;;;16.43;10.23;;;17.20;99.90;;;;;;5005942;28;20474;-80
2022/05/26 06:45:33;;;;;;;17.07;9.67;;;17.20;99.90;;;;;;5003297;28;20454;-79
2022/05/26 06:48:00;;;;;;;15.63;10.47;;;17.20;99.90;;;;;;5000216;28;20481;-79
2022/05/26 06:50:26;;;;;;;14.30;10.80;;;17.20;99.90;;;;;;4998465;28;20473;-79
2022/05/26 06:52:53;;;;;;;13.97;11.70;;;17.20;99.90;;;;;;5002388;28;20553;-80
2022/05/26 06:55:20;;;;;;;13.67;11.50;;;17.30;99.90;;;;;;4998953;28;20465;-79
2022/05/26 06:57:48;;;;;;;18.53;10.60;;;17.40;99.90;;;;;;5000157;28;20455;-79
2022/05/26 07:00:16;;;;;;;16.70;11.27;;;17.40;99.90;;;;;;4997980;28;20483;-80
2022/05/26 07:02:43;;;;;;;18.40;11.00;;;17.50;99.90;;;;;;4999086;28;20538;-79
2022/05/26 07:05:11;;;;;;;12.20;10.47;;;17.60;99.90;;;;;;4998799;28;20462;-80
2022/05/26 07:07:38;;;;;;;15.53;11.10;;;17.40;99.90;;;;;;5005393;28;20478;-80
2022/05/26 07:10:06;;;;;;;15.33;11.27;;;17.20;99.90;;;;;;5000971;28;20474;-80
2022/05/26 07:12:33;;;;;;;14.70;12.23;;;17.20;99.90;;;;;;5005778;28;20482;-80
2022/05/26 07:15:03;;;;;;;16.13;11.20;;;17.20;99.90;;;;;;5007657;28;20493;-80
2022/05/26 07:17:30;;;;;;;12.30;11.00;;;17.30;99.90;;;;;;5008025;28;20453;-80
2022/05/26 07:19:57;;;;;;;16.77;11.43;;;17.30;99.90;;;;;;5009210;28;20537;-81
2022/05/26 07:22:24;;;;;;;19.17;12.07;;;17.40;99.90;;;;;;5007716;28;20455;-81
2022/05/26 07:24:51;;;;;;;17.10;11.37;;;17.50;99.90;;;;;;5009346;28;20461;-80
2022/05/26 07:27:19;;;;;;;20.73;11.37;;;17.80;99.90;;;;;;5006354;28;20545;-81
2022/05/26 07:29:45;;;;;;;14.60;11.27;;;18.10;99.90;;;;;;5008294;28;20499;-80
2022/05/26 07:32:14;;;;;;;12.83;10.13;;;18.30;99.90;;;;;;5006322;28;20518;-80
2022/05/26 07:34:40;;;;;;;17.83;10.00;;;18.40;99.90;;;;;;5008690;28;20532;-80
2022/05/26 07:42:37;;;;;;;15.97;10.70;;;18.70;99.90;;;;;;5006185;28;20872;-80
2022/05/26 07:45:07;;;;;;;12.67;10.07;;;18.80;99.90;;;;;;5013692;28;20457;-80
2022/05/26 07:47:36;;;;;;;14.20;10.47;;;18.80;99.90;;;;;;5013143;28;21058;-81
2022/05/26 07:50:04;;;;;;;15.33;10.90;;;18.80;99.90;;;;;;5012414;28;20480;-81
2022/05/26 07:52:31;;;;;;;11.77;9.90;;;18.80;99.90;;;;;;5007798;28;20491;-79
2022/05/26 07:54:58;;;;;;;12.13;9.70;;;18.60;99.90;;;;;;5009186;28;20470;-79
2022/05/26 07:57:27;;;;;;;12.33;9.30;;;18.60;99.90;;;;;;5008988;28;20849;-79
2022/05/26 07:59:55;;;;;;;13.93;9.77;;;18.70;99.90;;;;;;5009576;28;20552;-79
2022/05/26 08:02:22;;;;;;;14.57;9.43;;;18.90;99.90;;;;;;5008157;28;20881;-80
2022/05/26 08:04:50;;;;;;;12.47;10.00;;;18.90;99.90;;;;;;5008868;28;20894;-78
2022/05/26 08:07:17;;;;;;;14.03;9.57;;;19.00;99.90;;;;;;5007739;28;20457;-80
2022/05/26 08:09:44;;;;;;;9.67;8.67;;;19.00;99.90;;;;;;5006595;28;20487;-81
2022/05/26 08:12:13;;;;;;;13.40;10.03;;;19.10;99.90;;;;;;5005712;28;20493;-80
2022/05/26 08:14:41;;;;;;;15.00;10.33;;;19.20;99.90;;;;;;5006761;28;20452;-80
2022/05/26 08:17:09;;;;;;;11.80;9.40;;;19.20;99.90;;;;;;5002644;28;20528;-80
2022/05/26 08:19:36;;;;;;;9.73;8.53;;;19.40;99.90;;;;;;5007102;28;20477;-79
2022/05/26 08:22:04;;;;;;;13.57;8.30;;;19.40;99.90;;;;;;5005270;28;20877;-79
2022/05/26 08:24:31;;;;;;;9.40;7.90;;;19.50;99.90;;;;;;5004381;28;20548;-79
2022/05/26 08:26:58;;;;;;;10.43;8.73;;;19.80;99.90;;;;;;5008204;28;20520;-79
2022/05/26 08:29:25;;;;;;;11.57;8.50;;;19.70;99.90;;;;;;5008927;28;20981;-79
2022/05/26 08:31:52;;;;;;;9.10;7.67;;;19.60;99.90;;;;;;5004666;28;20489;-78
2022/05/26 08:34:19;;;;;;;13.37;8.53;;;19.50;99.90;;;;;;5006138;28;20449;-79
2022/05/26 08:36:46;;;;;;;13.77;7.87;;;19.10;99.90;;;;;;5003672;28;20818;-78
2022/05/26 08:39:14;;;;;;;9.70;8.70;;;19.00;99.90;;;;;;5005234;28;20496;-80
2022/05/26 08:41:44;;;;;;;13.83;8.33;;;18.70;99.90;;;;;;5005266;28;20465;-79
2022/05/26 08:44:15;;;;;;;11.43;8.33;;;18.70;99.90;;;;;;5004536;28;20460;-81
2022/05/26 08:46:45;;;;;;;10.93;8.80;;;18.70;99.90;;;;;;5030167;22;20509;-79
2022/05/26 08:49:18;;;;;;;12.33;8.00;;;18.60;99.90;;;;;;5017340;28;20824;-78
2022/05/26 08:51:49;;;;;;;11.23;7.40;;;18.70;99.90;;;;;;5015883;28;20681;-78
2022/05/26 08:54:24;;;;;;;9.70;7.20;;;18.70;99.90;;;;;;5016362;28;20540;-79
2022/05/26 08:56:52;;;;;;;10.47;7.80;;;18.70;99.90;;;;;;5021728;28;20917;-79
2022/05/26 08:59:23;;;;;;;8.70;7.00;;;18.70;99.90;;;;;;4994764;28;20485;-79
2022/05/26 09:01:50;;;;;;;9.97;7.23;;;19.00;99.90;;;;;;5004970;28;20442;-79
2022/05/26 09:04:17;;;;;;;12.53;6.30;;;19.60;99.90;;;;;;5020204;28;20458;-79
2022/05/26 09:15:07;;;;;;;9.00;5.33;;;20.60;99.90;;;;;;5002084;28;20434;-80
2022/05/26 09:17:34;;;;;;;7.83;5.50;;;21.30;99.90;;;;;;5002883;28;20455;-79
2022/05/26 09:20:05;;;;;;;10.20;6.37;;;21.60;99.90;;;;;;4990494;28;20448;-78
2022/05/26 09:22:40;;;;;;;10.33;6.23;;;21.80;99.90;;;;;;4982415;28;20483;-78
2022/05/26 09:25:12;;;;;;;7.70;5.40;;;22.20;99.90;;;;;;4977785;28;20455;-78
2022/05/26 09:27:40;;;;;;;8.40;5.00;;;22.10;99.90;;;;;;4976152;28;20475;-78
2022/05/26 09:30:21;;;;;;;8.90;5.43;;;22.50;99.90;;;;;;4987136;28;20447;-78
2022/05/26 09:32:49;;;;;;;8.27;4.63;;;23.00;99.90;;;;;;4995868;28;20493;-78
2022/05/26 09:35:25;;;;;;;7.00;4.20;;;23.30;99.90;;;;;;4995903;28;20943;-78
2022/05/26 09:37:54;;;;;;;10.60;5.60;;;23.60;99.90;;;;;;4997827;28;20478;-79
2022/05/26 09:40:28;;;;;;;10.73;4.53;;;23.80;99.90;;;;;;4982079;28;20444;-79
2022/05/26 09:43:02;;;;;;;9.60;7.00;;;23.60;99.90;;;;;;4975352;28;20531;-78
2022/05/26 09:45:37;;;;;;;9.20;5.10;;;23.20;99.90;;;;;;4975920;28;20495;-78
2022/05/26 09:48:15;;;;;;;8.23;4.20;;;23.00;99.90;;;;;;4974930;28;20483;-79
2022/05/26 09:50:46;;;;;;;8.00;3.83;;;22.80;99.90;;;;;;4974129;28;20450;-79
2022/05/26 09:53:15;;;;;;;6.60;3.90;;;23.00;99.90;;;;;;4974707;28;20582;-78
2022/05/26 09:55:46;;;;;;;3.80;3.03;;;23.60;99.90;;;;;;4976249;28;20462;-77
2022/05/26 09:58:27;;;;;;;7.47;4.20;;;24.10;99.90;;;;;;4976150;28;20452;-78
2022/05/26 10:00:56;;;;;;;8.50;5.10;;;24.50;99.90;;;;;;4973839;28;20466;-79
2022/05/26 10:03:33;;;;;;;10.40;5.60;;;24.50;99.90;;;;;;4982053;28;20451;-78
2022/05/26 10:06:15;;;;;;;7.67;4.90;;;23.60;99.90;;;;;;4995469;28;20462;-79
2022/05/26 10:08:50;;;;;;;7.20;5.37;;;23.20;99.90;;;;;;4994221;28;20477;-78
2022/05/26 10:11:31;;;;;;;6.87;4.37;;;22.90;99.90;;;;;;4997174;28;20460;-78
2022/05/26 10:14:09;;;;;;;8.17;5.00;;;22.90;99.90;;;;;;4986860;28;20531;-78
2022/05/26 10:16:44;;;;;;;8.03;5.77;;;22.90;99.90;;;;;;4974598;28;20487;-79
2022/05/26 10:19:24;;;;;;;6.70;4.67;;;22.80;99.90;;;;;;4974462;28;20454;-78
2022/05/26 10:22:08;;;;;;;5.27;4.27;;;22.70;99.90;;;;;;4975514;28;20456;-79
2022/05/26 10:24:44;;;;;;;6.10;4.63;;;22.70;99.90;;;;;;4987553;28;20451;-79
2022/05/26 10:27:26;;;;;;;6.80;5.10;;;22.30;99.90;;;;;;5007730;28;20519;-79
2022/05/26 10:30:06;;;;;;;8.23;5.10;;;22.10;99.90;;;;;;5003391;28;20446;-78
2022/05/26 10:32:41;;;;;;;6.83;4.70;;;21.70;99.90;;;;;;4996999;28;20497;-79
2022/05/26 10:35:26;;;;;;;8.90;4.40;;;21.40;99.90;;;;;;5000994;28;20538;-79
2022/05/26 10:38:06;;;;;;;8.80;3.57;;;21.70;99.90;;;;;;5005527;28;20473;-78
2022/05/26 10:40:43;;;;;;;6.17;3.80;;;21.70;99.90;;;;;;4997485;28;20460;-79
2022/05/26 10:43:15;;;;;;;8.23;4.33;;;22.80;99.90;;;;;;5012628;28;20443;-79
2022/05/26 10:45:45;;;;;;;8.07;4.10;;;23.90;99.90;;;;;;5009388;28;20458;-79
2022/05/26 10:48:22;;;;;;;8.03;4.70;;;24.00;99.90;;;;;;5023707;28;20505;-81
2022/05/26 10:50:58;;;;;;;9.40;4.03;;;24.00;99.90;;;;;;5018907;28;20470;-81
2022/05/26 10:53:32;;;;;;;7.33;2.97;;;24.10;99.90;;;;;;5019070;28;20474;-81
2022/05/26 10:56:08;;;;;;;5.80;3.00;;;24.30;99.90;;;;;;5017014;28;20510;-79
2022/05/26 10:58:41;;;;;;;8.13;3.53;;;24.10;99.90;;;;;;5018188;28;20489;-82
2022/05/26 11:01:15;;;;;;;9.63;3.20;;;24.40;99.90;;;;;;5010308;28;20449;-80
2022/05/26 11:03:46;;;;;;;8.47;3.07;;;24.20;99.90;;;;;;5009632;28;20485;-79
2022/05/26 11:06:22;;;;;;;5.23;3.60;;;23.90;99.90;;;;;;5022210;28;20431;-83
2022/05/26 11:08:54;;;;;;;4.47;2.57;;;23.80;99.90;;;;;;5018690;28;20494;-83
2022/05/26 11:11:27;;;;;;;7.17;3.00;;;24.10;99.90;;;;;;5004831;28;20462;-81
2022/05/26 11:14:02;;;;;;;5.97;2.90;;;24.30;99.90;;;;;;5002968;28;20487;-80
2022/05/26 11:19:33;;;;;;;4.83;2.90;;;23.50;99.90;;;;;;4994510;28;20474;-80
2022/05/26 11:22:01;;;;;;;6.27;2.83;;;23.40;99.90;;;;;;4985323;28;20456;-80
2022/05/26 11:24:29;;;;;;;5.50;2.87;;;23.40;99.90;;;;;;4987540;28;20451;-81
2022/05/26 11:27:02;;;;;;;7.50;2.87;;;24.30;99.90;;;;;;4987909;28;20475;-79
2022/05/26 11:29:33;;;;;;;5.93;2.60;;;26.40;99.90;;;;;;4995036;28;20942;-80
2022/05/26 11:37:59;;;;;;;4.17;2.77;;;25.70;99.90;;;;;;4978493;28;20989;-80
2022/05/26 11:40:32;;;;;;;6.37;2.80;;;24.80;99.90;;;;;;4984632;28;20483;-78
2022/05/26 11:42:59;;;;;;;5.60;3.00;;;24.10;99.90;;;;;;4981734;28;20475;-80
2022/05/26 11:45:32;;;;;;;5.63;2.47;;;23.80;99.90;;;;;;4981253;28;20511;-79
2022/05/26 11:48:01;;;;;;;3.47;2.60;;;23.60;99.90;;;;;;4978950;28;20483;-80
2022/05/26 11:50:31;;;;;;;5.80;3.07;;;23.40;99.90;;;;;;4994675;28;20453;-79
2022/05/26 11:53:02;;;;;;;4.70;2.80;;;23.80;99.90;;;;;;4981129;28;20486;-80
2022/05/26 11:55:32;;;;;;;4.70;2.57;;;24.20;99.90;;;;;;4979143;28;20456;-78
2022/05/26 11:58:17;;;;;;;5.90;3.03;;;23.90;99.90;;;;;;4979452;28;20547;-78
2022/05/26 12:00:47;;;;;;;6.20;3.10;;;23.40;99.90;;;;;;4981083;28;20462;-79
2022/05/26 12:03:31;;;;;;;5.70;3.23;;;22.80;99.90;;;;;;4998120;28;20517;-80
2022/05/26 12:06:11;;;;;;;5.80;3.70;;;22.60;99.90;;;;;;5003725;28;20878;-80
2022/05/26 12:08:41;;;;;;;6.93;4.10;;;22.80;99.90;;;;;;5005262;28;20439;-79
2022/05/26 12:11:11;;;;;;;7.13;3.73;;;23.80;99.90;;;;;;5011370;28;20465;-79
2022/05/26 12:13:40;;;;;;;6.23;3.97;;;25.00;99.90;;;;;;4985705;28;20475;-79
2022/05/26 12:16:33;;;;;;;5.87;3.13;;;24.90;99.90;;;;;;4976545;28;20459;-78
2022/05/26 12:19:02;;;;;;;8.43;3.50;;;24.30;99.90;;;;;;4977813;28;20486;-79
2022/05/26 12:21:45;;;;;;;8.13;3.40;;;23.80;99.90;;;;;;4986371;28;20530;-78
2022/05/26 12:24:58;;;;;;;6.30;3.00;;;23.20;99.90;;;;;;5001317;28;20447;-80
2022/05/26 12:27:57;;;;;;;5.17;3.00;;;23.20;99.90;;;;;;5002831;28;20481;-78
2022/05/26 12:30:38;;;;;;;5.97;2.97;;;23.60;99.90;;;;;;5001362;28;20458;-80
2022/05/26 12:33:32;;;;;;;5.10;2.70;;;24.20;99.90;;;;;;5004772;28;20510;-80
2022/05/26 12:36:09;;;;;;;4.87;3.03;;;24.70;99.90;;;;;;4976582;28;20450;-80
2022/05/26 12:38:59;;;;;;;6.30;2.87;;;24.70;99.90;;;;;;5009669;28;21050;-80
2022/05/26 12:41:35;;;;;;;5.97;3.50;;;25.00;99.90;;;;;;5002420;28;20535;-79
2022/05/26 12:44:23;;;;;;;4.80;3.37;;;24.80;99.90;;;;;;4989581;28;20455;-80
2022/05/26 12:47:04;;;;;;;7.13;3.53;;;25.00;99.90;;;;;;4996075;28;20553;-79
2022/05/26 12:49:48;;;;;;;4.90;2.83;;;25.10;99.90;;;;;;5006330;28;20480;-80
2022/05/26 12:52:19;;;;;;;4.30;3.13;;;24.60;99.90;;;;;;4992468;28;20467;-80
2022/05/26 12:54:51;;;;;;;3.70;2.60;;;24.30;99.90;;;;;;4986835;28;20455;-79
2022/05/26 12:57:22;;;;;;;5.17;3.00;;;24.00;99.90;;;;;;4985816;28;20536;-79
2022/05/26 12:59:49;;;;;;;6.97;3.40;;;23.80;99.90;;;;;;4986601;28;20542;-79
2022/05/26 13:02:26;;;;;;;6.53;2.90;;;25.10;99.90;;;;;;4985132;28;20464;-79
2022/05/26 13:04:56;;;;;;;5.50;2.87;;;26.60;99.90;;;;;;5000788;28;20458;-79
2022/05/26 13:07:23;;;;;;;8.23;3.43;;;27.50;99.90;;;;;;5007303;28;20470;-79
2022/05/26 13:09:53;;;;;;;6.50;2.90;;;28.20;99.90;;;;;;5006700;28;20813;-81
2022/05/26 13:12:24;;;;;;;5.70;2.90;;;27.90;99.90;;;;;;5005004;28;20453;-80
2022/05/26 13:14:53;;;;;;;5.17;3.27;;;27.10;99.90;;;;;;5006049;28;20451;-80
2022/05/26 13:17:22;;;;;;;4.20;2.80;;;26.20;99.90;;;;;;5004430;28;20474;-79
2022/05/26 13:19:51;;;;;;;7.70;3.00;;;25.60;99.90;;;;;;5004958;28;20462;-79
2022/05/26 13:22:23;;;;;;;6.90;2.90;;;25.60;99.90;;;;;;5003108;28;21074;-80
2022/05/26 13:24:53;;;;;;;5.00;3.00;;;25.50;99.90;;;;;;5005851;28;20521;-80
2022/05/26 13:27:20;;;;;;;4.57;2.57;;;26.00;99.90;;;;;;4987532;28;20482;-81
2022/05/26 13:29:51;;;;;;;6.10;2.63;;;25.90;99.90;;;;;;4982968;28;20827;-79
2022/05/26 13:35:15;;;;;;;5.40;2.40;;;27.90;99.90;;;;;;4986445;28;20435;-79
2022/05/26 13:37:44;;;;;;;6.93;2.30;;;29.50;99.90;;;;;;5002445;28;20470;-82
2022/05/26 13:40:14;;;;;;;6.17;2.20;;;30.90;99.90;;;;;;5006164;28;20520;-80
2022/05/26 13:42:44;;;;;;;5.17;2.20;;;32.10;99.90;;;;;;5004487;28;20522;-80
2022/05/26 13:45:19;;;;;;;6.00;2.10;;;31.80;96.70;;;;;;5005724;28;20828;-81